sensor_id;sensor_type;location;lat;lon;timestamp;temperature;humidity
12769;DHT22;6448;48.916;8.990;2023-02-11T00:00:22;5.60;51.30
12769;DHT22;6448;48.916;8.990;2023-02-11T00:01:26;5.50;51.20
12769;DHT22;6448;48.916;8.990;2023-02-11T00:02:30;5.60;51.30
12769;DHT22;6448;48.916;8.990;2023-02-11T00:03:32;5.60;51.30
12769;DHT22;6448;48.916;8.990;2023-02-11T00:04:33;5.50;51.30
12769;DHT22;6448;48.916;8.990;2023-02-11T00:05:35;5.50;51.30
12769;DHT22;6448;48.916;8.990;2023-02-11T00:06:35;5.50;51.30
12769;DHT22;6448;48.916;8.990;2023-02-11T00:07:38;5.50;51.30
12769;DHT22;6448;48.916;8.990;2023-02-11T00:08:39;5.50;51.30
12769;DHT22;6448;48.916;8.990;2023-02-11T00:09:41;5.50;51.90
12769;DHT22;6448;48.916;8.990;2023-02-11T00:10:42;5.50;51.30
12769;DHT22;6448;48.916;8.990;2023-02-11T00:11:45;5.50;51.30
12769;DHT22;6448;48.916;8.990;2023-02-11T00:12:47;5.50;51.30
12769;DHT22;6448;48.916;8.990;2023-02-11T00:13:48;5.50;51.30
12769;DHT22;6448;48.916;8.990;2023-02-11T00:14:50;5.50;51.40
12769;DHT22;6448;48.916;8.990;2023-02-11T00:15:52;5.50;51.40
12769;DHT22;6448;48.916;8.990;2023-02-11T00:16:54;5.50;51.40
12769;DHT22;6448;48.916;8.990;2023-02-11T00:17:55;5.50;51.40
12769;DHT22;6448;48.916;8.990;2023-02-11T00:18:58;5.50;51.40
12769;DHT22;6448;48.916;8.990;2023-02-11T00:20:00;5.50;51.50
12769;DHT22;6448;48.916;8.990;2023-02-11T00:21:05;5.50;51.40
12769;DHT22;6448;48.916;8.990;2023-02-11T00:22:08;5.50;51.40
12769;DHT22;6448;48.916;8.990;2023-02-11T00:23:10;5.50;51.40
12769;DHT22;6448;48.916;8.990;2023-02-11T00:24:12;5.50;51.40
12769;DHT22;6448;48.916;8.990;2023-02-11T00:25:13;5.50;51.40
12769;DHT22;6448;48.916;8.990;2023-02-11T00:26:16;5.50;51.40
12769;DHT22;6448;48.916;8.990;2023-02-11T00:27:19;5.50;51.40
12769;DHT22;6448;48.916;8.990;2023-02-11T00:28:19;5.50;51.30
12769;DHT22;6448;48.916;8.990;2023-02-11T00:29:21;5.50;51.30
12769;DHT22;6448;48.916;8.990;2023-02-11T00:30:22;5.50;51.40
12769;DHT22;6448;48.916;8.990;2023-02-11T00:31:24;5.50;51.30
12769;DHT22;6448;48.916;8.990;2023-02-11T00:32:25;5.50;51.30
12769;DHT22;6448;48.916;8.990;2023-02-11T00:33:27;5.50;51.30
12769;DHT22;6448;48.916;8.990;2023-02-11T00:34:28;5.50;51.30
12769;DHT22;6448;48.916;8.990;2023-02-11T00:35:30;5.40;51.30
12769;DHT22;6448;48.916;8.990;2023-02-11T00:36:31;5.40;51.30
12769;DHT22;6448;48.916;8.990;2023-02-11T00:37:33;5.50;51.40
12769;DHT22;6448;48.916;8.990;2023-02-11T00:38:38;5.40;51.40
12769;DHT22;6448;48.916;8.990;2023-02-11T00:39:41;5.40;51.40
12769;DHT22;6448;48.916;8.990;2023-02-11T00:40:41;5.40;51.30
12769;DHT22;6448;48.916;8.990;2023-02-11T00:41:43;5.40;51.40
12769;DHT22;6448;48.916;8.990;2023-02-11T00:42:46;5.40;51.40
12769;DHT22;6448;48.916;8.990;2023-02-11T00:43:49;5.40;51.40
12769;DHT22;6448;48.916;8.990;2023-02-11T00:45:07;5.40;51.40
12769;DHT22;6448;48.916;8.990;2023-02-11T00:46:23;5.40;51.40
12769;DHT22;6448;48.916;8.990;2023-02-11T00:47:25;5.40;51.40
12769;DHT22;6448;48.916;8.990;2023-02-11T00:48:26;5.40;51.40
12769;DHT22;6448;48.916;8.990;2023-02-11T00:49:27;5.40;51.40
12769;DHT22;6448;48.916;8.990;2023-02-11T00:50:28;5.40;51.40
12769;DHT22;6448;48.916;8.990;2023-02-11T00:51:30;5.30;51.30
12769;DHT22;6448;48.916;8.990;2023-02-11T00:52:31;5.30;51.30
12769;DHT22;6448;48.916;8.990;2023-02-11T00:53:34;5.30;51.40
12769;DHT22;6448;48.916;8.990;2023-02-11T00:54:36;5.30;51.40
12769;DHT22;6448;48.916;8.990;2023-02-11T00:55:39;5.30;51.30
12769;DHT22;6448;48.916;8.990;2023-02-11T00:56:40;5.30;51.30
12769;DHT22;6448;48.916;8.990;2023-02-11T00:57:42;5.30;51.40
12769;DHT22;6448;48.916;8.990;2023-02-11T00:58:43;5.30;51.40
12769;DHT22;6448;48.916;8.990;2023-02-11T00:59:45;5.30;51.40
12769;DHT22;6448;48.916;8.990;2023-02-11T01:00:45;5.30;51.40
12769;DHT22;6448;48.916;8.990;2023-02-11T01:01:47;5.30;51.40
12769;DHT22;6448;48.916;8.990;2023-02-11T01:02:48;5.30;51.40
12769;DHT22;6448;48.916;8.990;2023-02-11T01:03:50;5.20;51.40
12769;DHT22;6448;48.916;8.990;2023-02-11T01:04:51;5.20;51.30
12769;DHT22;6448;48.916;8.990;2023-02-11T01:05:53;5.30;51.40
12769;DHT22;6448;48.916;8.990;2023-02-11T01:06:54;5.20;51.40
12769;DHT22;6448;48.916;8.990;2023-02-11T01:07:55;5.30;51.50
12769;DHT22;6448;48.916;8.990;2023-02-11T01:08:57;5.20;51.50
12769;DHT22;6448;48.916;8.990;2023-02-11T01:10:00;5.40;51.70
12769;DHT22;6448;48.916;8.990;2023-02-11T01:11:06;5.20;51.50
12769;DHT22;6448;48.916;8.990;2023-02-11T01:12:08;5.20;51.60
12769;DHT22;6448;48.916;8.990;2023-02-11T01:13:09;5.20;51.60
12769;DHT22;6448;48.916;8.990;2023-02-11T01:14:11;5.20;51.70
12769;DHT22;6448;48.916;8.990;2023-02-11T01:15:13;5.20;51.70
12769;DHT22;6448;48.916;8.990;2023-02-11T01:16:16;5.20;51.70
12769;DHT22;6448;48.916;8.990;2023-02-11T01:17:18;5.20;51.70
12769;DHT22;6448;48.916;8.990;2023-02-11T01:18:24;5.20;51.70
12769;DHT22;6448;48.916;8.990;2023-02-11T01:19:25;5.20;51.70
12769;DHT22;6448;48.916;8.990;2023-02-11T01:20:27;5.20;51.70
12769;DHT22;6448;48.916;8.990;2023-02-11T01:21:30;5.20;51.70
12769;DHT22;6448;48.916;8.990;2023-02-11T01:22:32;5.20;51.60
12769;DHT22;6448;48.916;8.990;2023-02-11T01:23:33;5.10;51.60
12769;DHT22;6448;48.916;8.990;2023-02-11T01:24:35;5.10;51.60
12769;DHT22;6448;48.916;8.990;2023-02-11T01:25:37;5.20;51.60
12769;DHT22;6448;48.916;8.990;2023-02-11T01:26:39;5.20;51.60
12769;DHT22;6448;48.916;8.990;2023-02-11T01:27:40;5.20;51.60
12769;DHT22;6448;48.916;8.990;2023-02-11T01:28:42;5.10;51.60
12769;DHT22;6448;48.916;8.990;2023-02-11T01:29:43;5.10;51.60
12769;DHT22;6448;48.916;8.990;2023-02-11T01:30:45;5.10;51.60
12769;DHT22;6448;48.916;8.990;2023-02-11T01:31:46;5.10;51.60
12769;DHT22;6448;48.916;8.990;2023-02-11T01:32:47;5.10;51.60
12769;DHT22;6448;48.916;8.990;2023-02-11T01:33:48;5.10;51.70
12769;DHT22;6448;48.916;8.990;2023-02-11T01:34:50;5.10;51.70
12769;DHT22;6448;48.916;8.990;2023-02-11T01:35:51;5.10;51.70
12769;DHT22;6448;48.916;8.990;2023-02-11T01:36:56;5.10;51.70
12769;DHT22;6448;48.916;8.990;2023-02-11T01:37:57;5.10;51.80
12769;DHT22;6448;48.916;8.990;2023-02-11T01:38:59;5.10;51.70
12769;DHT22;6448;48.916;8.990;2023-02-11T01:40:01;5.10;51.70
12769;DHT22;6448;48.916;8.990;2023-02-11T01:41:06;5.10;51.80
12769;DHT22;6448;48.916;8.990;2023-02-11T01:42:09;5.10;51.80
12769;DHT22;6448;48.916;8.990;2023-02-11T01:43:12;5.10;51.80
12769;DHT22;6448;48.916;8.990;2023-02-11T01:44:28;5.10;51.80
12769;DHT22;6448;48.916;8.990;2023-02-11T01:47:13;5.10;51.80
12769;DHT22;6448;48.916;8.990;2023-02-11T01:48:17;5.10;51.90
12769;DHT22;6448;48.916;8.990;2023-02-11T01:49:26;5.00;51.90
12769;DHT22;6448;48.916;8.990;2023-02-11T01:50:28;5.00;51.90
12769;DHT22;6448;48.916;8.990;2023-02-11T01:51:33;5.00;51.90
12769;DHT22;6448;48.916;8.990;2023-02-11T01:52:38;5.00;51.90
12769;DHT22;6448;48.916;8.990;2023-02-11T01:53:42;5.00;51.90
12769;DHT22;6448;48.916;8.990;2023-02-11T01:55:05;5.00;51.90
12769;DHT22;6448;48.916;8.990;2023-02-11T01:56:28;5.00;51.90
12769;DHT22;6448;48.916;8.990;2023-02-11T01:57:52;5.00;52.00
12769;DHT22;6448;48.916;8.990;2023-02-11T01:59:01;5.00;51.90
12769;DHT22;6448;48.916;8.990;2023-02-11T02:00:09;5.00;52.00
12769;DHT22;6448;48.916;8.990;2023-02-11T02:01:17;5.00;52.00
12769;DHT22;6448;48.916;8.990;2023-02-11T02:02:22;5.00;52.00
12769;DHT22;6448;48.916;8.990;2023-02-11T02:03:24;5.00;52.00
12769;DHT22;6448;48.916;8.990;2023-02-11T02:04:28;4.90;51.90
12769;DHT22;6448;48.916;8.990;2023-02-11T02:05:34;5.00;51.90
12769;DHT22;6448;48.916;8.990;2023-02-11T02:06:44;5.00;52.00
12769;DHT22;6448;48.916;8.990;2023-02-11T02:07:53;5.00;51.90
12769;DHT22;6448;48.916;8.990;2023-02-11T02:09:00;5.00;52.00
12769;DHT22;6448;48.916;8.990;2023-02-11T02:10:08;5.00;52.00
12769;DHT22;6448;48.916;8.990;2023-02-11T02:11:10;4.90;51.90
12769;DHT22;6448;48.916;8.990;2023-02-11T02:12:12;4.90;51.90
12769;DHT22;6448;48.916;8.990;2023-02-11T02:13:14;4.90;52.00
12769;DHT22;6448;48.916;8.990;2023-02-11T02:14:15;4.90;52.00
12769;DHT22;6448;48.916;8.990;2023-02-11T02:15:20;4.90;52.00
12769;DHT22;6448;48.916;8.990;2023-02-11T02:16:21;4.90;52.10
12769;DHT22;6448;48.916;8.990;2023-02-11T02:17:33;4.90;52.10
12769;DHT22;6448;48.916;8.990;2023-02-11T02:18:43;4.90;52.20
12769;DHT22;6448;48.916;8.990;2023-02-11T02:20:28;4.90;52.20
12769;DHT22;6448;48.916;8.990;2023-02-11T02:21:49;4.90;52.20
12769;DHT22;6448;48.916;8.990;2023-02-11T02:23:10;4.90;52.20
12769;DHT22;6448;48.916;8.990;2023-02-11T02:24:54;4.90;52.20
12769;DHT22;6448;48.916;8.990;2023-02-11T02:26:18;4.90;52.30
12769;DHT22;6448;48.916;8.990;2023-02-11T02:27:43;4.80;52.20
12769;DHT22;6448;48.916;8.990;2023-02-11T02:29:07;4.90;52.30
12769;DHT22;6448;48.916;8.990;2023-02-11T02:32:22;4.80;52.20
12769;DHT22;6448;48.916;8.990;2023-02-11T02:33:38;4.80;52.20
12769;DHT22;6448;48.916;8.990;2023-02-11T02:34:45;4.80;52.20
12769;DHT22;6448;48.916;8.990;2023-02-11T02:35:59;4.80;52.20
12769;DHT22;6448;48.916;8.990;2023-02-11T02:37:08;4.80;52.20
12769;DHT22;6448;48.916;8.990;2023-02-11T02:38:13;4.80;52.10
12769;DHT22;6448;48.916;8.990;2023-02-11T02:39:20;4.80;52.10
12769;DHT22;6448;48.916;8.990;2023-02-11T02:40:24;4.80;52.20
12769;DHT22;6448;48.916;8.990;2023-02-11T02:41:29;4.80;52.10
12769;DHT22;6448;48.916;8.990;2023-02-11T02:42:31;4.70;52.20
12769;DHT22;6448;48.916;8.990;2023-02-11T02:43:34;4.80;52.20
12769;DHT22;6448;48.916;8.990;2023-02-11T02:44:36;4.70;52.20
12769;DHT22;6448;48.916;8.990;2023-02-11T02:45:38;4.70;52.20
12769;DHT22;6448;48.916;8.990;2023-02-11T02:46:38;4.80;52.20
12769;DHT22;6448;48.916;8.990;2023-02-11T02:47:42;4.80;52.20
12769;DHT22;6448;48.916;8.990;2023-02-11T02:48:43;4.80;52.20
12769;DHT22;6448;48.916;8.990;2023-02-11T02:49:44;4.70;52.20
12769;DHT22;6448;48.916;8.990;2023-02-11T02:50:45;5.00;52.30
12769;DHT22;6448;48.916;8.990;2023-02-11T02:53:23;4.70;52.40
12769;DHT22;6448;48.916;8.990;2023-02-11T02:56:11;4.70;52.50
12769;DHT22;6448;48.916;8.990;2023-02-11T02:57:28;4.70;52.40
12769;DHT22;6448;48.916;8.990;2023-02-11T03:00:14;4.70;52.40
12769;DHT22;6448;48.916;8.990;2023-02-11T03:01:25;4.70;52.40
12769;DHT22;6448;48.916;8.990;2023-02-11T03:02:32;4.70;52.40
12769;DHT22;6448;48.916;8.990;2023-02-11T03:03:41;4.70;52.50
12769;DHT22;6448;48.916;8.990;2023-02-11T03:04:49;4.70;52.50
12769;DHT22;6448;48.916;8.990;2023-02-11T03:05:57;4.70;52.60
12769;DHT22;6448;48.916;8.990;2023-02-11T03:07:06;4.60;52.50
12769;DHT22;6448;48.916;8.990;2023-02-11T03:08:12;4.60;52.50
12769;DHT22;6448;48.916;8.990;2023-02-11T03:09:21;4.60;52.50
12769;DHT22;6448;48.916;8.990;2023-02-11T03:10:26;4.60;52.60
12769;DHT22;6448;48.916;8.990;2023-02-11T03:11:28;4.60;52.60
12769;DHT22;6448;48.916;8.990;2023-02-11T03:12:30;4.60;52.60
12769;DHT22;6448;48.916;8.990;2023-02-11T03:13:35;4.60;52.70
12769;DHT22;6448;48.916;8.990;2023-02-11T03:14:38;4.60;52.80
12769;DHT22;6448;48.916;8.990;2023-02-11T03:15:43;4.60;52.80
12769;DHT22;6448;48.916;8.990;2023-02-11T03:16:45;4.60;52.80
12769;DHT22;6448;48.916;8.990;2023-02-11T03:17:52;4.60;52.80
12769;DHT22;6448;48.916;8.990;2023-02-11T03:18:58;4.50;52.80
12769;DHT22;6448;48.916;8.990;2023-02-11T03:20:01;4.60;52.90
12769;DHT22;6448;48.916;8.990;2023-02-11T03:21:04;4.60;52.90
12769;DHT22;6448;48.916;8.990;2023-02-11T03:22:12;4.50;52.80
12769;DHT22;6448;48.916;8.990;2023-02-11T03:23:19;4.60;52.80
12769;DHT22;6448;48.916;8.990;2023-02-11T03:24:27;4.60;52.90
12769;DHT22;6448;48.916;8.990;2023-02-11T03:25:37;4.50;52.80
12769;DHT22;6448;48.916;8.990;2023-02-11T03:26:45;4.50;52.90
12769;DHT22;6448;48.916;8.990;2023-02-11T03:27:51;4.50;52.90
12769;DHT22;6448;48.916;8.990;2023-02-11T03:28:59;4.70;53.00
12769;DHT22;6448;48.916;8.990;2023-02-11T03:30:07;4.50;53.00
12769;DHT22;6448;48.916;8.990;2023-02-11T03:31:17;4.50;53.00
12769;DHT22;6448;48.916;8.990;2023-02-11T03:32:23;4.50;53.00
12769;DHT22;6448;48.916;8.990;2023-02-11T03:33:29;4.50;53.00
12769;DHT22;6448;48.916;8.990;2023-02-11T03:34:39;4.50;53.10
12769;DHT22;6448;48.916;8.990;2023-02-11T03:35:46;4.50;53.10
12769;DHT22;6448;48.916;8.990;2023-02-11T03:36:52;4.60;53.20
12769;DHT22;6448;48.916;8.990;2023-02-11T03:37:59;4.50;53.10
12769;DHT22;6448;48.916;8.990;2023-02-11T03:39:01;4.50;53.20
12769;DHT22;6448;48.916;8.990;2023-02-11T03:40:08;4.50;53.20
12769;DHT22;6448;48.916;8.990;2023-02-11T03:42:41;4.50;53.20
12769;DHT22;6448;48.916;8.990;2023-02-11T03:43:45;4.50;53.20
12769;DHT22;6448;48.916;8.990;2023-02-11T03:44:56;4.50;53.20
12769;DHT22;6448;48.916;8.990;2023-02-11T03:46:00;4.60;53.30
12769;DHT22;6448;48.916;8.990;2023-02-11T03:47:03;4.50;53.30
12769;DHT22;6448;48.916;8.990;2023-02-11T03:48:15;4.50;53.30
12769;DHT22;6448;48.916;8.990;2023-02-11T03:49:18;4.50;53.40
12769;DHT22;6448;48.916;8.990;2023-02-11T03:50:25;4.50;53.40
12769;DHT22;6448;48.916;8.990;2023-02-11T03:51:28;4.50;53.40
12769;DHT22;6448;48.916;8.990;2023-02-11T03:52:33;4.50;53.40
12769;DHT22;6448;48.916;8.990;2023-02-11T03:53:37;4.50;53.40
12769;DHT22;6448;48.916;8.990;2023-02-11T03:54:41;4.70;53.50
12769;DHT22;6448;48.916;8.990;2023-02-11T03:55:44;4.50;53.50
12769;DHT22;6448;48.916;8.990;2023-02-11T03:56:50;4.50;53.50
12769;DHT22;6448;48.916;8.990;2023-02-11T03:57:52;4.50;53.50
12769;DHT22;6448;48.916;8.990;2023-02-11T03:58:56;4.50;53.50
12769;DHT22;6448;48.916;8.990;2023-02-11T03:59:58;4.60;53.60
12769;DHT22;6448;48.916;8.990;2023-02-11T04:01:00;4.50;53.50
12769;DHT22;6448;48.916;8.990;2023-02-11T04:02:02;4.50;53.50
12769;DHT22;6448;48.916;8.990;2023-02-11T04:03:04;4.50;53.50
12769;DHT22;6448;48.916;8.990;2023-02-11T04:04:05;4.50;53.60
12769;DHT22;6448;48.916;8.990;2023-02-11T04:05:09;4.50;53.50
12769;DHT22;6448;48.916;8.990;2023-02-11T04:06:11;4.50;53.60
12769;DHT22;6448;48.916;8.990;2023-02-11T04:07:13;4.50;53.60
12769;DHT22;6448;48.916;8.990;2023-02-11T04:08:14;4.40;53.60
12769;DHT22;6448;48.916;8.990;2023-02-11T04:09:15;4.50;53.80
12769;DHT22;6448;48.916;8.990;2023-02-11T04:10:16;4.40;53.80
12769;DHT22;6448;48.916;8.990;2023-02-11T04:11:18;4.50;53.90
12769;DHT22;6448;48.916;8.990;2023-02-11T04:12:33;4.50;53.90
12769;DHT22;6448;48.916;8.990;2023-02-11T04:13:39;4.60;53.90
12769;DHT22;6448;48.916;8.990;2023-02-11T04:14:45;4.50;53.90
12769;DHT22;6448;48.916;8.990;2023-02-11T04:15:47;4.50;54.00
12769;DHT22;6448;48.916;8.990;2023-02-11T04:16:48;4.50;54.00
12769;DHT22;6448;48.916;8.990;2023-02-11T04:17:50;4.70;54.10
12769;DHT22;6448;48.916;8.990;2023-02-11T04:18:56;4.50;54.10
12769;DHT22;6448;48.916;8.990;2023-02-11T04:19:58;4.50;54.00
12769;DHT22;6448;48.916;8.990;2023-02-11T04:20:59;4.60;54.20
12769;DHT22;6448;48.916;8.990;2023-02-11T04:22:03;4.50;54.20
12769;DHT22;6448;48.916;8.990;2023-02-11T04:23:04;4.50;54.20
12769;DHT22;6448;48.916;8.990;2023-02-11T04:24:06;4.50;54.30
12769;DHT22;6448;48.916;8.990;2023-02-11T04:25:08;4.50;54.30
12769;DHT22;6448;48.916;8.990;2023-02-11T04:26:10;4.50;54.40
12769;DHT22;6448;48.916;8.990;2023-02-11T04:27:10;4.50;54.40
12769;DHT22;6448;48.916;8.990;2023-02-11T04:28:12;4.60;54.40
12769;DHT22;6448;48.916;8.990;2023-02-11T04:29:13;4.50;54.40
12769;DHT22;6448;48.916;8.990;2023-02-11T04:30:15;4.60;54.50
12769;DHT22;6448;48.916;8.990;2023-02-11T04:31:18;4.60;54.50
12769;DHT22;6448;48.916;8.990;2023-02-11T04:32:23;4.60;54.50
12769;DHT22;6448;48.916;8.990;2023-02-11T04:33:24;4.60;54.50
12769;DHT22;6448;48.916;8.990;2023-02-11T04:34:26;4.60;54.40
12769;DHT22;6448;48.916;8.990;2023-02-11T04:35:26;4.60;54.40
12769;DHT22;6448;48.916;8.990;2023-02-11T04:36:28;4.60;54.40
12769;DHT22;6448;48.916;8.990;2023-02-11T04:37:33;4.70;54.40
12769;DHT22;6448;48.916;8.990;2023-02-11T04:38:38;4.70;54.40
12769;DHT22;6448;48.916;8.990;2023-02-11T04:39:46;4.70;54.40
12769;DHT22;6448;48.916;8.990;2023-02-11T04:40:47;4.60;54.30
12769;DHT22;6448;48.916;8.990;2023-02-11T04:41:48;4.70;54.40
12769;DHT22;6448;48.916;8.990;2023-02-11T04:42:49;4.70;54.30
12769;DHT22;6448;48.916;8.990;2023-02-11T04:43:51;4.60;54.30
12769;DHT22;6448;48.916;8.990;2023-02-11T04:44:52;4.70;54.30
12769;DHT22;6448;48.916;8.990;2023-02-11T04:45:56;4.70;54.30
12769;DHT22;6448;48.916;8.990;2023-02-11T04:46:57;4.70;54.30
12769;DHT22;6448;48.916;8.990;2023-02-11T04:48:00;4.70;54.50
12769;DHT22;6448;48.916;8.990;2023-02-11T04:49:02;4.70;54.30
12769;DHT22;6448;48.916;8.990;2023-02-11T04:50:05;4.70;54.30
12769;DHT22;6448;48.916;8.990;2023-02-11T04:51:06;4.90;54.40
12769;DHT22;6448;48.916;8.990;2023-02-11T04:52:08;4.80;54.30
12769;DHT22;6448;48.916;8.990;2023-02-11T04:53:10;4.70;54.20
12769;DHT22;6448;48.916;8.990;2023-02-11T04:54:12;4.70;54.30
12769;DHT22;6448;48.916;8.990;2023-02-11T04:55:13;4.70;55.00
12769;DHT22;6448;48.916;8.990;2023-02-11T04:56:15;4.80;54.30
12769;DHT22;6448;48.916;8.990;2023-02-11T04:57:21;5.00;54.40
12769;DHT22;6448;48.916;8.990;2023-02-11T04:58:31;4.80;54.40
12769;DHT22;6448;48.916;8.990;2023-02-11T04:59:32;4.70;54.20
12769;DHT22;6448;48.916;8.990;2023-02-11T05:00:34;4.80;54.30
12769;DHT22;6448;48.916;8.990;2023-02-11T05:01:35;4.80;54.30
12769;DHT22;6448;48.916;8.990;2023-02-11T05:02:48;4.70;54.30
12769;DHT22;6448;48.916;8.990;2023-02-11T05:04:02;4.80;54.30
12769;DHT22;6448;48.916;8.990;2023-02-11T05:05:05;4.80;54.30
12769;DHT22;6448;48.916;8.990;2023-02-11T05:06:10;4.80;54.40
12769;DHT22;6448;48.916;8.990;2023-02-11T05:07:12;4.80;54.50
12769;DHT22;6448;48.916;8.990;2023-02-11T05:08:15;4.80;54.50
12769;DHT22;6448;48.916;8.990;2023-02-11T05:09:17;4.80;54.50
12769;DHT22;6448;48.916;8.990;2023-02-11T05:10:17;4.80;54.50
12769;DHT22;6448;48.916;8.990;2023-02-11T05:11:21;4.80;54.60
12769;DHT22;6448;48.916;8.990;2023-02-11T05:12:22;4.80;54.60
12769;DHT22;6448;48.916;8.990;2023-02-11T05:13:24;4.80;54.60
12769;DHT22;6448;48.916;8.990;2023-02-11T05:14:25;4.80;54.60
12769;DHT22;6448;48.916;8.990;2023-02-11T05:15:27;4.80;54.60
12769;DHT22;6448;48.916;8.990;2023-02-11T05:16:28;4.90;54.60
12769;DHT22;6448;48.916;8.990;2023-02-11T05:17:30;4.90;54.70
12769;DHT22;6448;48.916;8.990;2023-02-11T05:18:31;4.80;54.50
12769;DHT22;6448;48.916;8.990;2023-02-11T05:19:33;4.90;54.70
12769;DHT22;6448;48.916;8.990;2023-02-11T05:20:36;4.80;54.60
12769;DHT22;6448;48.916;8.990;2023-02-11T05:21:38;4.70;54.60
12769;DHT22;6448;48.916;8.990;2023-02-11T05:22:39;5.00;54.70
12769;DHT22;6448;48.916;8.990;2023-02-11T05:23:54;4.90;54.80
12769;DHT22;6448;48.916;8.990;2023-02-11T05:25:10;4.80;54.80
12769;DHT22;6448;48.916;8.990;2023-02-11T05:26:13;4.90;54.80
12769;DHT22;6448;48.916;8.990;2023-02-11T05:27:13;4.90;54.80
12769;DHT22;6448;48.916;8.990;2023-02-11T05:28:15;4.90;54.80
12769;DHT22;6448;48.916;8.990;2023-02-11T05:29:16;4.90;54.80
12769;DHT22;6448;48.916;8.990;2023-02-11T05:30:18;4.90;54.80
12769;DHT22;6448;48.916;8.990;2023-02-11T05:31:19;4.90;54.80
12769;DHT22;6448;48.916;8.990;2023-02-11T05:32:21;4.90;54.90
12769;DHT22;6448;48.916;8.990;2023-02-11T05:33:22;4.90;54.90
12769;DHT22;6448;48.916;8.990;2023-02-11T05:34:32;4.90;55.00
12769;DHT22;6448;48.916;8.990;2023-02-11T05:35:33;4.90;54.80
12769;DHT22;6448;48.916;8.990;2023-02-11T05:36:35;4.90;54.90
12769;DHT22;6448;48.916;8.990;2023-02-11T05:37:35;5.00;55.00
12769;DHT22;6448;48.916;8.990;2023-02-11T05:38:38;4.90;55.00
12769;DHT22;6448;48.916;8.990;2023-02-11T05:39:40;4.90;55.00
12769;DHT22;6448;48.916;8.990;2023-02-11T05:40:42;5.10;55.10
12769;DHT22;6448;48.916;8.990;2023-02-11T05:41:44;4.90;55.00
12769;DHT22;6448;48.916;8.990;2023-02-11T05:42:46;4.90;55.10
12769;DHT22;6448;48.916;8.990;2023-02-11T05:43:55;4.90;55.10
12769;DHT22;6448;48.916;8.990;2023-02-11T05:45:21;4.90;55.00
12769;DHT22;6448;48.916;8.990;2023-02-11T05:46:31;4.90;55.00
12769;DHT22;6448;48.916;8.990;2023-02-11T05:47:33;5.10;55.10
12769;DHT22;6448;48.916;8.990;2023-02-11T05:48:34;4.90;55.00
12769;DHT22;6448;48.916;8.990;2023-02-11T05:49:36;4.90;55.10
12769;DHT22;6448;48.916;8.990;2023-02-11T05:51:30;4.90;55.20
12769;DHT22;6448;48.916;8.990;2023-02-11T05:52:39;5.00;55.80
12769;DHT22;6448;48.916;8.990;2023-02-11T05:54:09;4.90;55.10
12769;DHT22;6448;48.916;8.990;2023-02-11T05:55:24;4.90;55.20
12769;DHT22;6448;48.916;8.990;2023-02-11T05:56:26;4.90;55.20
12769;DHT22;6448;48.916;8.990;2023-02-11T05:57:26;5.00;55.20
12769;DHT22;6448;48.916;8.990;2023-02-11T05:58:34;5.00;55.30
12769;DHT22;6448;48.916;8.990;2023-02-11T05:59:43;5.00;55.30
12769;DHT22;6448;48.916;8.990;2023-02-11T06:00:47;5.30;55.50
12769;DHT22;6448;48.916;8.990;2023-02-11T06:01:48;5.00;55.30
12769;DHT22;6448;48.916;8.990;2023-02-11T06:02:50;5.00;55.40
12769;DHT22;6448;48.916;8.990;2023-02-11T06:03:51;5.00;55.30
12769;DHT22;6448;48.916;8.990;2023-02-11T06:05:48;5.20;55.30
12769;DHT22;6448;48.916;8.990;2023-02-11T06:07:04;5.00;55.30
12769;DHT22;6448;48.916;8.990;2023-02-11T06:08:19;5.10;55.30
12769;DHT22;6448;48.916;8.990;2023-02-11T06:19:12;5.10;55.40
12769;DHT22;6448;48.916;8.990;2023-02-11T06:20:14;5.60;55.60
12769;DHT22;6448;48.916;8.990;2023-02-11T06:21:15;5.10;55.40
12769;DHT22;6448;48.916;8.990;2023-02-11T06:22:25;5.00;55.40
12769;DHT22;6448;48.916;8.990;2023-02-11T06:24:17;5.10;55.40
12769;DHT22;6448;48.916;8.990;2023-02-11T06:25:19;5.10;55.50
12769;DHT22;6448;48.916;8.990;2023-02-11T06:26:21;5.10;55.50
12769;DHT22;6448;48.916;8.990;2023-02-11T06:27:24;5.10;55.50
12769;DHT22;6448;48.916;8.990;2023-02-11T06:28:24;5.40;55.60
12769;DHT22;6448;48.916;8.990;2023-02-11T06:29:26;5.30;55.60
12769;DHT22;6448;48.916;8.990;2023-02-11T06:30:27;5.20;55.50
12769;DHT22;6448;48.916;8.990;2023-02-11T06:31:29;5.20;55.50
12769;DHT22;6448;48.916;8.990;2023-02-11T06:32:30;5.20;55.40
12769;DHT22;6448;48.916;8.990;2023-02-11T06:33:33;5.20;55.30
12769;DHT22;6448;48.916;8.990;2023-02-11T06:34:35;5.20;55.40
12769;DHT22;6448;48.916;8.990;2023-02-11T06:35:37;5.20;55.40
12769;DHT22;6448;48.916;8.990;2023-02-11T06:36:39;5.20;55.40
12769;DHT22;6448;48.916;8.990;2023-02-11T06:37:41;5.20;55.40
12769;DHT22;6448;48.916;8.990;2023-02-11T06:38:42;5.20;55.30
12769;DHT22;6448;48.916;8.990;2023-02-11T06:39:44;5.20;55.30
12769;DHT22;6448;48.916;8.990;2023-02-11T06:40:48;5.20;55.30
12769;DHT22;6448;48.916;8.990;2023-02-11T06:41:53;5.20;55.40
12769;DHT22;6448;48.916;8.990;2023-02-11T06:42:53;5.20;55.30
12769;DHT22;6448;48.916;8.990;2023-02-11T06:43:55;5.30;55.40
12769;DHT22;6448;48.916;8.990;2023-02-11T06:44:56;5.20;55.40
12769;DHT22;6448;48.916;8.990;2023-02-11T06:45:58;5.20;55.40
12769;DHT22;6448;48.916;8.990;2023-02-11T06:46:59;5.20;55.40
12769;DHT22;6448;48.916;8.990;2023-02-11T06:48:01;5.20;55.40
12769;DHT22;6448;48.916;8.990;2023-02-11T06:49:02;5.20;55.40
12769;DHT22;6448;48.916;8.990;2023-02-11T06:50:06;5.20;55.50
12769;DHT22;6448;48.916;8.990;2023-02-11T06:51:09;5.20;55.50
12769;DHT22;6448;48.916;8.990;2023-02-11T06:52:12;5.30;55.60
12769;DHT22;6448;48.916;8.990;2023-02-11T06:53:13;5.30;55.60
12769;DHT22;6448;48.916;8.990;2023-02-11T06:54:15;5.20;55.50
12769;DHT22;6448;48.916;8.990;2023-02-11T06:55:16;5.40;55.50
12769;DHT22;6448;48.916;8.990;2023-02-11T06:56:20;5.20;55.50
12769;DHT22;6448;48.916;8.990;2023-02-11T06:57:21;5.30;55.60
12769;DHT22;6448;48.916;8.990;2023-02-11T06:58:22;5.30;55.60
12769;DHT22;6448;48.916;8.990;2023-02-11T06:59:23;5.30;55.60
12769;DHT22;6448;48.916;8.990;2023-02-11T07:00:25;5.20;55.50
12769;DHT22;6448;48.916;8.990;2023-02-11T07:01:28;5.50;55.70
12769;DHT22;6448;48.916;8.990;2023-02-11T07:02:30;5.30;55.60
12769;DHT22;6448;48.916;8.990;2023-02-11T07:03:31;5.40;55.60
12769;DHT22;6448;48.916;8.990;2023-02-11T07:04:34;5.30;55.70
12769;DHT22;6448;48.916;8.990;2023-02-11T07:05:36;5.30;55.70
12769;DHT22;6448;48.916;8.990;2023-02-11T07:06:38;5.30;55.70
12769;DHT22;6448;48.916;8.990;2023-02-11T07:07:39;5.30;55.70
12769;DHT22;6448;48.916;8.990;2023-02-11T07:08:41;5.30;55.70
12769;DHT22;6448;48.916;8.990;2023-02-11T07:09:42;5.30;55.80
12769;DHT22;6448;48.916;8.990;2023-02-11T07:12:50;5.30;55.80
12769;DHT22;6448;48.916;8.990;2023-02-11T07:12:55;5.30;55.80
12769;DHT22;6448;48.916;8.990;2023-02-11T07:13:53;5.30;55.70
12769;DHT22;6448;48.916;8.990;2023-02-11T07:20:37;5.30;55.90
12769;DHT22;6448;48.916;8.990;2023-02-11T07:21:39;5.30;55.90
12769;DHT22;6448;48.916;8.990;2023-02-11T07:22:39;5.30;55.90
12769;DHT22;6448;48.916;8.990;2023-02-11T07:23:41;5.40;56.00
12769;DHT22;6448;48.916;8.990;2023-02-11T07:24:42;5.40;55.90
12769;DHT22;6448;48.916;8.990;2023-02-11T07:25:44;5.40;56.50
12769;DHT22;6448;48.916;8.990;2023-02-11T07:26:45;5.40;55.90
12769;DHT22;6448;48.916;8.990;2023-02-11T07:27:46;5.40;55.90
12769;DHT22;6448;48.916;8.990;2023-02-11T07:28:48;5.40;55.90